Time;durP1;ratioP1;P1;durP2;ratioP2;P2;SDS_P1;SDS_P2;PMS_P1;PMS_P2;Temp;Humidity;BMP_temperature;BMP_pressure;BME280_temperature;BME280_humidity;BME280_pressure;Samples;Min_cycle;Max_cycle;Signal;HPM_P1;HPM_P2
2022/12/14 00:00:50;;;;;;;27.85;17.33;;;;;;;;;;4926972;28;99102;-74
2022/12/14 00:03:17;;;;;;;25.23;15.00;;;;;;;;;;4925892;28;99249;-73
2022/12/14 00:05:44;;;;;;;23.17;15.10;;;;;;;;;;4925881;28;100832;-73
2022/12/14 00:08:11;;;;;;;24.48;15.18;;;;;;;;;;4924046;28;99349;-73
2022/12/14 00:10:38;;;;;;;22.05;13.05;;;;;;;;;;4921147;28;99945;-74
2022/12/14 00:13:05;;;;;;;22.08;15.15;;;;;;;;;;4926129;28;100251;-73
2022/12/14 00:15:32;;;;;;;22.80;14.95;;;;;;;;;;4925649;28;100041;-73
2022/12/14 00:17:58;;;;;;;26.48;14.35;;;;;;;;;;4929338;28;100132;-73
2022/12/14 00:20:26;;;;;;;20.75;14.77;;;;;;;;;;4925675;28;100004;-73
2022/12/14 00:22:54;;;;;;;24.98;14.85;;;;;;;;;;4924944;28;99161;-73
2022/12/14 00:25:21;;;;;;;25.75;14.25;;;;;;;;;;4926543;28;99107;-74
2022/12/14 00:27:47;;;;;;;20.20;14.23;;;;;;;;;;4925825;28;99948;-73
2022/12/14 00:30:16;;;;;;;19.13;13.95;;;;;;;;;;4924927;28;98778;-74
2022/12/14 00:32:43;;;;;;;24.05;13.95;;;;;;;;;;4925517;28;101042;-73
2022/12/14 00:35:10;;;;;;;20.85;14.88;;;;;;;;;;4925259;28;100085;-75
2022/12/14 00:37:36;;;;;;;23.70;15.38;;;;;;;;;;4924933;28;100431;-73
2022/12/14 00:40:04;;;;;;;20.55;13.32;;;;;;;;;;4928892;28;99529;-74
2022/12/14 00:42:31;;;;;;;24.77;14.65;;;;;;;;;;4925433;28;100132;-73
2022/12/14 00:44:57;;;;;;;24.48;14.98;;;;;;;;;;4924921;28;100253;-73
2022/12/14 00:47:23;;;;;;;21.98;13.63;;;;;;;;;;4925648;28;99842;-73
2022/12/14 00:49:51;;;;;;;25.60;13.63;;;;;;;;;;4925983;28;100305;-74
2022/12/14 00:52:17;;;;;;;21.48;15.30;;;;;;;;;;4924907;28;100941;-74
2022/12/14 00:54:44;;;;;;;21.10;15.18;;;;;;;;;;4925231;28;100102;-74
2022/12/14 00:57:10;;;;;;;23.10;14.45;;;;;;;;;;4924416;28;99681;-73
2022/12/14 00:59:36;;;;;;;18.02;13.23;;;;;;;;;;4924759;28;99287;-74
2022/12/14 01:02:03;;;;;;;21.63;13.55;;;;;;;;;;4928934;28;100191;-74
2022/12/14 01:04:29;;;;;;;19.92;13.55;;;;;;;;;;4925100;28;100425;-73
2022/12/14 01:06:56;;;;;;;20.40;14.13;;;;;;;;;;4924829;28;99977;-74
2022/12/14 01:09:23;;;;;;;21.88;13.45;;;;;;;;;;4925099;28;99130;-74
2022/12/14 01:11:50;;;;;;;15.43;10.27;;;;;;;;;;4924862;28;100720;-73
2022/12/14 01:14:17;;;;;;;17.67;10.35;;;;;;;;;;4925501;28;99954;-73
2022/12/14 01:16:44;;;;;;;19.40;12.88;;;;;;;;;;4924787;28;99461;-74
2022/12/14 01:19:11;;;;;;;22.60;11.20;;;;;;;;;;4920700;28;99786;-73
2022/12/14 01:21:37;;;;;;;17.38;11.52;;;;;;;;;;4924553;28;99461;-73
2022/12/14 01:24:04;;;;;;;17.80;12.93;;;;;;;;;;4928455;28;101131;-73
2022/12/14 01:26:32;;;;;;;26.15;14.85;;;;;;;;;;4924007;28;100075;-73
2022/12/14 01:28:58;;;;;;;20.17;13.27;;;;;;;;;;4925071;28;100275;-74
2022/12/14 01:31:26;;;;;;;21.40;13.70;;;;;;;;;;4924575;28;100504;-74
2022/12/14 01:33:52;;;;;;;18.05;12.23;;;;;;;;;;4924807;28;98904;-73
2022/12/14 01:36:20;;;;;;;20.60;13.32;;;;;;;;;;4925448;28;99048;-73
2022/12/14 01:38:47;;;;;;;18.13;13.20;;;;;;;;;;4925427;28;99761;-73
2022/12/14 01:41:24;;;;;;;23.33;14.70;;;;;;;;;;4924337;28;100066;-73
2022/12/14 01:43:54;;;;;;;30.88;14.43;;;;;;;;;;4928118;28;99865;-74
2022/12/14 01:46:24;;;;;;;23.85;13.52;;;;;;;;;;4924233;28;100047;-74
2022/12/14 01:48:51;;;;;;;20.85;14.93;;;;;;;;;;4924476;28;100736;-74
2022/12/14 01:51:18;;;;;;;17.55;12.18;;;;;;;;;;4925194;28;100168;-74
2022/12/14 01:53:45;;;;;;;20.77;14.85;;;;;;;;;;4924627;28;100154;-72
2022/12/14 01:56:12;;;;;;;21.25;14.75;;;;;;;;;;4924376;28;99489;-73
2022/12/14 01:58:39;;;;;;;18.45;13.27;;;;;;;;;;4924265;28;100094;-73
2022/12/14 02:01:05;;;;;;;22.35;14.43;;;;;;;;;;4924207;28;99152;-74
2022/12/14 02:03:33;;;;;;;20.48;13.93;;;;;;;;;;4924754;28;100104;-73
2022/12/14 02:06:03;;;;;;;20.17;13.93;;;;;;;;;;4927632;28;100209;-73
2022/12/14 02:08:30;;;;;;;19.45;13.88;;;;;;;;;;4924922;28;100804;-73
2022/12/14 02:10:57;;;;;;;16.10;11.98;;;;;;;;;;4927572;28;100476;-74
2022/12/14 02:13:26;;;;;;;20.17;13.40;;;;;;;;;;4927716;28;100018;-74
2022/12/14 02:15:53;;;;;;;18.33;13.75;;;;;;;;;;4920550;28;100314;-74
2022/12/14 02:18:24;;;;;;;23.80;14.20;;;;;;;;;;4928532;28;99228;-73
2022/12/14 02:20:50;;;;;;;22.50;14.60;;;;;;;;;;4923598;28;100261;-74
2022/12/14 02:23:36;;;;;;;25.75;13.45;;;;;;;;;;4927039;28;100047;-73
2022/12/14 02:26:12;;;;;;;19.67;13.50;;;;;;;;;;4922143;28;100433;-74
2022/12/14 02:28:48;;;;;;;20.63;13.98;;;;;;;;;;4931466;28;100564;-73
2022/12/14 02:31:34;;;;;;;22.65;13.57;;;;;;;;;;4927160;28;100364;-74
2022/12/14 02:34:17;;;;;;;20.88;13.40;;;;;;;;;;4927495;28;100180;-74
2022/12/14 02:37:04;;;;;;;22.85;13.52;;;;;;;;;;4926215;28;99975;-74
2022/12/14 02:39:33;;;;;;;20.58;13.77;;;;;;;;;;4927380;28;100345;-73
2022/12/14 02:41:59;;;;;;;21.80;14.38;;;;;;;;;;4928025;28;99575;-73
2022/12/14 02:44:33;;;;;;;21.75;13.20;;;;;;;;;;4926348;28;100130;-73
2022/12/14 02:47:01;;;;;;;19.08;13.95;;;;;;;;;;4920524;28;100434;-73
2022/12/14 02:49:47;;;;;;;21.13;14.27;;;;;;;;;;4927485;28;100586;-73
2022/12/14 02:52:23;;;;;;;20.77;14.63;;;;;;;;;;4930123;28;99957;-74
2022/12/14 02:55:00;;;;;;;21.58;14.02;;;;;;;;;;4927578;28;100432;-73
2022/12/14 02:57:30;;;;;;;26.67;14.57;;;;;;;;;;4926491;28;99683;-73
2022/12/14 02:59:59;;;;;;;21.38;14.45;;;;;;;;;;4927236;28;100283;-74
2022/12/14 03:02:27;;;;;;;23.83;13.70;;;;;;;;;;4926991;28;99600;-73
2022/12/14 03:04:57;;;;;;;19.63;13.23;;;;;;;;;;4926689;28;99713;-75
2022/12/14 03:07:32;;;;;;;21.52;13.23;;;;;;;;;;4927218;28;100459;-74
2022/12/14 03:10:02;;;;;;;22.17;14.73;;;;;;;;;;4927066;28;100194;-73
2022/12/14 03:12:28;;;;;;;21.92;13.88;;;;;;;;;;4926061;28;99278;-75
2022/12/14 03:14:56;;;;;;;21.50;14.70;;;;;;;;;;4930242;28;100237;-74
2022/12/14 03:17:24;;;;;;;19.45;12.95;;;;;;;;;;4927524;28;99174;-74
2022/12/14 03:19:56;;;;;;;21.10;13.70;;;;;;;;;;4920392;28;99813;-74
2022/12/14 03:22:24;;;;;;;22.20;13.07;;;;;;;;;;4926952;28;100073;-73
2022/12/14 03:24:53;;;;;;;18.90;12.90;;;;;;;;;;4926990;28;100032;-73
2022/12/14 03:27:23;;;;;;;18.55;13.23;;;;;;;;;;4925645;28;100963;-73
2022/12/14 03:29:57;;;;;;;23.63;13.32;;;;;;;;;;4927005;28;99068;-73
2022/12/14 03:32:25;;;;;;;23.00;13.52;;;;;;;;;;4927089;28;99261;-74
2022/12/14 03:34:55;;;;;;;21.17;13.77;;;;;;;;;;4926262;28;100297;-74
2022/12/14 03:37:37;;;;;;;23.52;13.77;;;;;;;;;;4930309;28;99953;-73
2022/12/14 03:40:07;;;;;;;19.87;12.67;;;;;;;;;;4926352;28;100267;-74
2022/12/14 03:42:56;;;;;;;21.92;13.75;;;;;;;;;;4926405;28;100225;-74
2022/12/14 03:45:27;;;;;;;19.38;13.00;;;;;;;;;;4920595;28;100070;-73
2022/12/14 03:47:56;;;;;;;21.08;12.93;;;;;;;;;;4926058;28;100579;-74
2022/12/14 03:50:28;;;;;;;16.70;12.50;;;;;;;;;;4926739;28;100280;-73
2022/12/14 03:53:10;;;;;;;18.35;12.43;;;;;;;;;;4925567;28;100074;-75
2022/12/14 03:55:39;;;;;;;18.58;13.38;;;;;;;;;;4925771;28;99504;-73
2022/12/14 03:58:08;;;;;;;19.90;12.85;;;;;;;;;;4929803;28;99561;-74
2022/12/14 04:00:39;;;;;;;23.77;13.70;;;;;;;;;;4926251;28;99359;-73
2022/12/14 04:03:18;;;;;;;19.30;13.50;;;;;;;;;;4926100;28;99815;-74
2022/12/14 04:05:55;;;;;;;20.08;12.90;;;;;;;;;;4926142;28;99927;-74
2022/12/14 04:08:24;;;;;;;20.60;14.10;;;;;;;;;;4918398;28;99552;-74
2022/12/14 04:19:16;;;;;;;22.85;14.43;;;;;;;;;;4925181;28;100075;-73
2022/12/14 04:21:43;;;;;;;18.63;13.20;;;;;;;;;;4928722;28;100786;-74
2022/12/14 04:26:57;;;;;;;17.88;12.80;;;;;;;;;;4926516;28;98957;-74
2022/12/14 04:32:16;;;;;;;24.15;14.57;;;;;;;;;;4924781;28;100090;-73
2022/12/14 04:34:45;;;;;;;22.20;14.73;;;;;;;;;;4925712;28;100128;-73
2022/12/14 04:37:14;;;;;;;19.33;13.00;;;;;;;;;;4923490;28;99619;-74
2022/12/14 04:39:49;;;;;;;20.40;13.70;;;;;;;;;;4921406;28;100030;-74
2022/12/14 04:42:16;;;;;;;19.38;13.18;;;;;;;;;;4926247;28;99018;-73
2022/12/14 04:44:49;;;;;;;21.10;14.35;;;;;;;;;;4928653;28;100827;-74
2022/12/14 04:47:16;;;;;;;21.33;14.05;;;;;;;;;;4925417;28;100704;-73
2022/12/14 04:49:42;;;;;;;22.52;14.35;;;;;;;;;;4925603;28;100193;-74
2022/12/14 04:52:09;;;;;;;20.38;14.25;;;;;;;;;;4924734;28;100052;-75
2022/12/14 04:54:44;;;;;;;21.98;13.55;;;;;;;;;;4925313;28;99219;-73
2022/12/14 04:57:20;;;;;;;17.60;13.23;;;;;;;;;;4924635;28;101037;-74
2022/12/14 04:59:47;;;;;;;21.75;14.57;;;;;;;;;;4925223;28;99136;-73
2022/12/14 05:02:18;;;;;;;26.15;14.45;;;;;;;;;;4926283;28;99672;-74
2022/12/14 05:04:54;;;;;;;25.20;15.05;;;;;;;;;;4924667;28;100412;-74
2022/12/14 05:07:38;;;;;;;19.80;13.98;;;;;;;;;;4928950;28;98910;-73
2022/12/14 05:10:08;;;;;;;21.90;14.32;;;;;;;;;;4924811;28;101110;-73
2022/12/14 05:12:47;;;;;;;22.80;15.13;;;;;;;;;;4924237;28;100411;-73
2022/12/14 05:15:23;;;;;;;19.20;13.07;;;;;;;;;;4925387;28;100253;-73
2022/12/14 05:17:50;;;;;;;22.88;14.20;;;;;;;;;;4919093;28;100343;-73
2022/12/14 05:20:21;;;;;;;20.63;13.85;;;;;;;;;;4924487;28;100004;-73
2022/12/14 05:22:49;;;;;;;20.65;13.48;;;;;;;;;;4924675;28;100139;-74
2022/12/14 05:25:15;;;;;;;21.98;14.07;;;;;;;;;;4924637;28;100435;-73
2022/12/14 05:27:42;;;;;;;21.05;13.55;;;;;;;;;;4925169;28;100056;-74
2022/12/14 05:30:09;;;;;;;20.48;13.50;;;;;;;;;;4928234;28;99245;-74
2022/12/14 05:32:35;;;;;;;19.75;13.15;;;;;;;;;;4923959;28;100023;-74
2022/12/14 05:35:02;;;;;;;19.48;13.00;;;;;;;;;;4924484;28;100258;-73
2022/12/14 05:37:29;;;;;;;16.98;12.70;;;;;;;;;;4924816;28;100435;-74
2022/12/14 05:39:55;;;;;;;20.48;12.15;;;;;;;;;;4924540;28;99057;-74
2022/12/14 05:42:21;;;;;;;19.73;12.65;;;;;;;;;;4925085;28;100539;-73
2022/12/14 05:44:48;;;;;;;18.73;12.95;;;;;;;;;;4927620;28;100451;-73
2022/12/14 05:47:14;;;;;;;20.13;11.50;;;;;;;;;;4927943;28;100205;-74
2022/12/14 05:49:41;;;;;;;20.33;12.00;;;;;;;;;;4927909;28;100027;-73
2022/12/14 05:52:07;;;;;;;17.90;11.07;;;;;;;;;;4932397;28;98768;-73
2022/12/14 05:54:33;;;;;;;16.50;11.55;;;;;;;;;;4927256;28;99231;-74
2022/12/14 05:57:00;;;;;;;18.05;11.50;;;;;;;;;;4928255;28;100288;-73
2022/12/14 05:59:27;;;;;;;16.02;11.30;;;;;;;;;;4927774;28;99749;-74
2022/12/14 06:01:53;;;;;;;14.77;11.20;;;;;;;;;;4919509;28;100666;-74
2022/12/14 06:04:20;;;;;;;16.83;12.02;;;;;;;;;;4928464;28;99245;-74
2022/12/14 06:06:46;;;;;;;15.30;11.32;;;;;;;;;;4927838;28;100012;-74
2022/12/14 06:09:14;;;;;;;17.52;11.88;;;;;;;;;;4927445;28;100112;-75
2022/12/14 06:11:41;;;;;;;20.05;11.85;;;;;;;;;;4930954;28;100348;-73
2022/12/14 06:14:08;;;;;;;17.13;11.68;;;;;;;;;;4928152;28;100052;-72
2022/12/14 06:16:35;;;;;;;18.63;12.07;;;;;;;;;;4927774;28;99868;-72
2022/12/14 06:19:03;;;;;;;20.13;12.10;;;;;;;;;;4927770;28;100333;-72
2022/12/14 06:21:31;;;;;;;20.02;11.65;;;;;;;;;;4926676;28;100266;-73
2022/12/14 06:23:58;;;;;;;20.13;11.98;;;;;;;;;;4919758;28;101010;-73
2022/12/14 06:26:25;;;;;;;18.88;11.13;;;;;;;;;;4927716;28;99992;-73
2022/12/14 06:28:52;;;;;;;21.45;12.00;;;;;;;;;;4927015;28;100099;-73
2022/12/14 06:31:22;;;;;;;18.17;11.07;;;;;;;;;;4927636;28;100844;-73
2022/12/14 06:33:49;;;;;;;18.90;11.30;;;;;;;;;;4930589;28;99686;-73
2022/12/14 06:36:22;;;;;;;19.65;12.65;;;;;;;;;;4926076;28;100158;-73
2022/12/14 06:38:50;;;;;;;20.73;13.07;;;;;;;;;;4921970;28;100149;-73
2022/12/14 06:41:16;;;;;;;19.98;13.32;;;;;;;;;;4926506;28;100189;-74
2022/12/14 06:43:43;;;;;;;19.30;13.55;;;;;;;;;;4926857;28;100323;-74
2022/12/14 06:46:15;;;;;;;25.33;14.68;;;;;;;;;;4925543;28;99995;-73
2022/12/14 06:48:42;;;;;;;30.45;15.23;;;;;;;;;;4920692;28;99720;-73
2022/12/14 06:51:08;;;;;;;24.23;15.43;;;;;;;;;;4918347;28;100206;-74
2022/12/14 06:53:35;;;;;;;21.77;13.52;;;;;;;;;;4916571;28;99428;-73
2022/12/14 06:56:08;;;;;;;19.95;13.05;;;;;;;;;;4924119;28;100576;-73
2022/12/14 06:58:35;;;;;;;22.85;14.52;;;;;;;;;;4923204;28;99905;-72
2022/12/14 07:01:02;;;;;;;26.05;14.15;;;;;;;;;;4924823;28;99207;-73
2022/12/14 07:03:29;;;;;;;19.52;12.90;;;;;;;;;;4924741;28;99521;-74
2022/12/14 07:05:57;;;;;;;23.27;14.40;;;;;;;;;;4924976;28;100250;-73
2022/12/14 07:08:24;;;;;;;17.98;11.68;;;;;;;;;;4926341;28;98611;-75
2022/12/14 07:10:51;;;;;;;18.27;12.88;;;;;;;;;;4926727;28;99513;-74
2022/12/14 07:13:24;;;;;;;18.13;12.70;;;;;;;;;;4926486;28;99322;-74
2022/12/14 07:15:51;;;;;;;21.65;13.98;;;;;;;;;;4926814;28;100641;-74
2022/12/14 07:18:19;;;;;;;17.98;13.02;;;;;;;;;;4930055;28;100136;-74
2022/12/14 07:20:59;;;;;;;16.58;12.50;;;;;;;;;;4926781;28;100051;-75
2022/12/14 07:23:26;;;;;;;21.60;13.38;;;;;;;;;;4918901;28;99157;-75
2022/12/14 07:25:59;;;;;;;19.02;13.93;;;;;;;;;;4913890;28;99705;-73
2022/12/14 07:28:26;;;;;;;22.38;14.68;;;;;;;;;;4926919;28;99075;-74
2022/12/14 07:30:56;;;;;;;17.60;12.85;;;;;;;;;;4924207;28;98760;-75
2022/12/14 07:33:22;;;;;;;18.60;12.38;;;;;;;;;;4926356;28;99917;-74
2022/12/14 07:35:49;;;;;;;18.27;13.18;;;;;;;;;;4926401;28;99899;-74
2022/12/14 07:38:16;;;;;;;17.85;13.30;;;;;;;;;;4925804;28;100393;-74
2022/12/14 07:40:43;;;;;;;23.08;13.75;;;;;;;;;;4928820;28;100137;-74
2022/12/14 07:43:09;;;;;;;23.08;13.00;;;;;;;;;;4924263;28;100418;-74
2022/12/14 07:45:35;;;;;;;19.17;13.48;;;;;;;;;;4926585;28;99695;-74
2022/12/14 07:48:02;;;;;;;23.05;13.07;;;;;;;;;;4925877;28;100268;-76
2022/12/14 07:50:28;;;;;;;16.85;12.05;;;;;;;;;;4925825;28;100234;-74
2022/12/14 07:52:54;;;;;;;21.42;13.02;;;;;;;;;;4925861;28;100189;-75
2022/12/14 07:55:21;;;;;;;20.77;12.98;;;;;;;;;;4926792;28;100234;-74
2022/12/14 07:57:47;;;;;;;20.75;11.93;;;;;;;;;;4926057;28;100275;-75
2022/12/14 08:00:14;;;;;;;19.48;12.23;;;;;;;;;;4917550;28;100175;-74
2022/12/14 08:02:40;;;;;;;25.63;14.18;;;;;;;;;;4926436;28;101147;-74
2022/12/14 08:05:07;;;;;;;18.38;12.65;;;;;;;;;;4925103;28;99201;-74
2022/12/14 08:07:38;;;;;;;20.95;13.27;;;;;;;;;;4925268;28;99141;-74
2022/12/14 08:10:04;;;;;;;19.92;13.27;;;;;;;;;;4923196;28;100391;-73
2022/12/14 08:12:31;;;;;;;15.27;10.73;;;;;;;;;;4918706;28;99975;-74
2022/12/14 08:14:57;;;;;;;18.70;13.70;;;;;;;;;;4925426;28;99972;-74
2022/12/14 08:17:23;;;;;;;15.85;11.57;;;;;;;;;;4925663;28;100134;-74
2022/12/14 08:19:49;;;;;;;22.67;13.50;;;;;;;;;;4919283;28;100075;-73
2022/12/14 08:22:16;;;;;;;20.27;13.50;;;;;;;;;;4926811;28;100479;-74
2022/12/14 08:24:42;;;;;;;21.88;14.10;;;;;;;;;;4924773;28;99182;-74
2022/12/14 08:27:14;;;;;;;19.05;13.50;;;;;;;;;;4922583;28;100419;-74
2022/12/14 08:29:41;;;;;;;21.58;14.55;;;;;;;;;;4924915;28;100323;-74
2022/12/14 08:32:07;;;;;;;25.65;15.70;;;;;;;;;;4924761;28;100294;-74
2022/12/14 08:34:34;;;;;;;23.23;15.30;;;;;;;;;;4918218;28;99041;-74
2022/12/14 08:37:00;;;;;;;22.90;14.50;;;;;;;;;;4925041;28;100124;-74
2022/12/14 08:39:26;;;;;;;26.58;14.70;;;;;;;;;;4923519;28;100560;-73
2022/12/14 08:41:53;;;;;;;29.13;14.60;;;;;;;;;;4926262;28;100106;-74
2022/12/14 08:44:19;;;;;;;25.42;14.88;;;;;;;;;;4928969;28;99182;-74
2022/12/14 08:46:46;;;;;;;24.02;14.13;;;;;;;;;;4925435;28;99219;-75
2022/12/14 08:49:12;;;;;;;27.15;16.05;;;;;;;;;;4923146;28;100586;-74
2022/12/14 08:51:39;;;;;;;23.63;15.75;;;;;;;;;;4924106;28;100121;-74
2022/12/14 08:54:05;;;;;;;37.60;15.57;;;;;;;;;;4919326;28;100701;-73
2022/12/14 08:56:31;;;;;;;26.98;16.50;;;;;;;;;;4923173;28;100796;-74
2022/12/14 08:58:58;;;;;;;26.77;16.42;;;;;;;;;;4925597;28;100267;-73
2022/12/14 09:01:26;;;;;;;25.50;16.60;;;;;;;;;;4923999;28;100166;-73
2022/12/14 09:04:06;;;;;;;27.50;16.52;;;;;;;;;;4924791;28;100450;-73
2022/12/14 09:06:35;;;;;;;28.52;16.27;;;;;;;;;;4928706;28;98946;-73
2022/12/14 09:09:02;;;;;;;31.42;16.60;;;;;;;;;;4926158;28;98925;-74
2022/12/14 09:11:28;;;;;;;26.55;16.80;;;;;;;;;;4924388;28;100245;-74
2022/12/14 09:13:55;;;;;;;27.20;18.25;;;;;;;;;;4925381;28;100161;-74
2022/12/14 09:16:25;;;;;;;30.35;17.75;;;;;;;;;;4925131;28;100082;-74
2022/12/14 09:18:51;;;;;;;30.98;17.00;;;;;;;;;;4923980;28;100395;-74
2022/12/14 09:21:18;;;;;;;26.20;17.23;;;;;;;;;;4926190;28;100006;-74
2022/12/14 09:23:44;;;;;;;32.50;16.35;;;;;;;;;;4924731;28;101525;-75
2022/12/14 09:26:19;;;;;;;26.63;17.92;;;;;;;;;;4925002;28;100100;-74
2022/12/14 09:28:47;;;;;;;26.90;16.30;;;;;;;;;;4928149;28;100060;-74
2022/12/14 09:31:17;;;;;;;34.15;17.48;;;;;;;;;;4925141;28;99991;-74
2022/12/14 09:33:47;;;;;;;30.73;16.38;;;;;;;;;;4927615;28;100119;-74
2022/12/14 09:36:15;;;;;;;24.63;16.05;;;;;;;;;;4927040;28;100381;-75
2022/12/14 09:38:42;;;;;;;20.10;14.30;;;;;;;;;;4919206;28;100648;-74
2022/12/14 09:41:32;;;;;;;18.75;11.55;;;;;;;;;;4920330;28;101247;-74
2022/12/14 09:44:02;;;;;;;24.33;15.77;;;;;;;;;;4919450;28;100725;-75
2022/12/14 09:46:40;;;;;;;22.90;12.02;;;;;;;;;;4923431;28;100033;-74
2022/12/14 09:49:12;;;;;;;26.58;16.02;;;;;;;;;;4922275;28;100685;-73
2022/12/14 09:51:39;;;;;;;;;;;;;;;;;;4927600;28;100243;-74
2022/12/14 09:54:07;;;;;;;22.13;14.10;;;;;;;;;;4922024;28;111448;-74
2022/12/14 09:56:35;;;;;;;23.88;13.95;;;;;;;;;;4924091;28;100213;-74
2022/12/14 09:59:02;;;;;;;22.75;12.10;;;;;;;;;;4919000;28;100785;-73
2022/12/14 10:01:47;;;;;;;35.67;14.07;;;;;;;;;;4920287;28;99529;-73
2022/12/14 10:04:52;;;;;;;27.38;14.52;;;;;;;;;;4921039;28;101476;-74
2022/12/14 10:07:29;;;;;;;22.98;14.55;;;;;;;;;;4914349;28;100479;-74
2022/12/14 10:10:20;;;;;;;29.02;14.13;;;;;;;;;;4923421;28;101195;-74
2022/12/14 10:12:53;;;;;;;27.50;14.73;;;;;;;;;;4923921;28;100251;-74
2022/12/14 10:15:19;;;;;;;22.70;13.30;;;;;;;;;;4924347;28;99561;-74
2022/12/14 10:18:04;;;;;;;24.50;15.15;;;;;;;;;;4920014;28;101172;-73
2022/12/14 10:20:35;;;;;;;25.30;16.13;;;;;;;;;;4921081;28;100076;-74
2022/12/14 10:23:02;;;;;;;24.80;16.35;;;;;;;;;;4922817;28;99923;-74
2022/12/14 10:25:31;;;;;;;21.17;14.35;;;;;;;;;;4922752;28;99840;-73
2022/12/14 10:28:01;;;;;;;33.95;15.73;;;;;;;;;;4920815;28;99980;-74
2022/12/14 10:30:39;;;;;;;29.35;15.23;;;;;;;;;;4923712;28;100386;-74
2022/12/14 10:33:15;;;;;;;24.85;14.77;;;;;;;;;;4926052;28;102049;-74
2022/12/14 10:35:57;;;;;;;25.83;14.63;;;;;;;;;;4922928;28;100181;-74
2022/12/14 10:38:40;;;;;;;21.17;14.00;;;;;;;;;;4925024;28;101069;-75
2022/12/14 10:41:21;;;;;;;24.48;14.75;;;;;;;;;;4927531;28;100040;-74
2022/12/14 10:43:55;;;;;;;23.30;15.25;;;;;;;;;;4923815;28;101650;-74
2022/12/14 10:46:43;;;;;;;20.77;14.52;;;;;;;;;;4926212;28;100169;-74
2022/12/14 10:49:10;;;;;;;21.10;14.15;;;;;;;;;;4924781;28;99691;-73
2022/12/14 10:51:40;;;;;;;26.92;15.38;;;;;;;;;;4919435;28;100944;-75
2022/12/14 10:54:15;;;;;;;22.48;15.00;;;;;;;;;;4922463;28;99367;-73
2022/12/14 10:56:42;;;;;;;22.33;13.98;;;;;;;;;;4916329;28;99250;-74
2022/12/14 10:59:22;;;;;;;23.85;13.93;;;;;;;;;;4929661;28;100213;-73
2022/12/14 11:01:51;;;;;;;24.63;15.38;;;;;;;;;;4925514;28;100317;-74
2022/12/14 11:04:37;;;;;;;34.50;16.20;;;;;;;;;;4915955;28;100327;-74
2022/12/14 11:07:05;;;;;;;24.70;13.93;;;;;;;;;;4926574;28;100585;-73
2022/12/14 11:09:32;;;;;;;19.38;13.52;;;;;;;;;;4918176;28;100197;-73
2022/12/14 11:12:06;;;;;;;24.65;14.60;;;;;;;;;;4918537;28;100148;-74
2022/12/14 11:14:35;;;;;;;27.58;15.10;;;;;;;;;;4916140;28;100160;-74
2022/12/14 11:17:01;;;;;;;20.35;13.40;;;;;;;;;;4926453;28;100329;-72
2022/12/14 11:19:28;;;;;;;21.70;14.75;;;;;;;;;;4926720;28;99297;-73
2022/12/14 11:22:05;;;;;;;23.27;14.20;;;;;;;;;;4929879;28;100332;-73
2022/12/14 11:24:41;;;;;;;19.10;13.40;;;;;;;;;;4924357;28;100066;-72
2022/12/14 11:27:08;;;;;;;23.10;14.13;;;;;;;;;;4926533;28;99767;-73
2022/12/14 11:29:36;;;;;;;23.77;13.25;;;;;;;;;;4926798;28;99209;-73
2022/12/14 11:32:03;;;;;;;19.50;12.63;;;;;;;;;;4924083;28;100467;-73
2022/12/14 11:34:42;;;;;;;24.63;13.82;;;;;;;;;;4920445;28;99880;-72
2022/12/14 11:37:28;;;;;;;25.50;14.60;;;;;;;;;;4920824;28;99192;-72
2022/12/14 11:39:56;;;;;;;18.65;12.75;;;;;;;;;;4924765;28;98902;-73
2022/12/14 11:42:23;;;;;;;24.00;13.32;;;;;;;;;;4926018;28;98460;-74
2022/12/14 11:44:50;;;;;;;17.58;12.27;;;;;;;;;;4928932;28;102133;-73
2022/12/14 11:47:18;;;;;;;27.15;11.48;;;;;;;;;;4918619;28;100324;-74
2022/12/14 11:49:46;;;;;;;17.98;11.52;;;;;;;;;;4923761;28;100059;-74
2022/12/14 11:52:12;;;;;;;19.35;12.80;;;;;;;;;;4925230;28;100697;-74
2022/12/14 11:54:40;;;;;;;15.35;11.23;;;;;;;;;;4926300;28;100272;-74
2022/12/14 11:57:12;;;;;;;19.88;12.32;;;;;;;;;;4926272;28;99230;-74
2022/12/14 11:59:51;;;;;;;14.55;10.98;;;;;;;;;;4921943;28;100040;-74
2022/12/14 12:02:25;;;;;;;20.75;12.65;;;;;;;;;;4926012;28;100752;-75
2022/12/14 12:04:57;;;;;;;27.92;12.60;;;;;;;;;;4926276;28;99118;-75
2022/12/14 12:07:28;;;;;;;22.67;13.30;;;;;;;;;;4926045;28;100246;-75
2022/12/14 12:10:00;;;;;;;19.70;12.95;;;;;;;;;;4926341;28;99192;-76
2022/12/14 12:12:26;;;;;;;21.13;13.32;;;;;;;;;;4918181;28;98951;-74
2022/12/14 12:14:54;;;;;;;18.60;13.65;;;;;;;;;;4918893;28;100629;-75
2022/12/14 12:17:38;;;;;;;20.42;13.45;;;;;;;;;;4912103;28;101530;-75
2022/12/14 12:20:13;;;;;;;20.90;14.55;;;;;;;;;;4914848;28;100127;-75
2022/12/14 12:22:42;;;;;;;31.15;13.05;;;;;;;;;;4918854;28;100121;-75
2022/12/14 12:25:13;;;;;;;19.20;13.93;;;;;;;;;;4925208;28;99288;-75
2022/12/14 12:28:00;;;;;;;20.80;13.30;;;;;;;;;;4924218;28;99400;-76
2022/12/14 12:30:30;;;;;;;16.13;11.05;;;;;;;;;;4924585;28;100148;-75
2022/12/14 12:33:01;;;;;;;23.90;11.55;;;;;;;;;;4924540;28;100031;-75
2022/12/14 12:35:41;;;;;;;16.70;11.48;;;;;;;;;;4923375;28;99539;-75
2022/12/14 12:38:11;;;;;;;17.65;11.98;;;;;;;;;;4924896;28;100203;-75
2022/12/14 12:40:42;;;;;;;20.65;10.60;;;;;;;;;;4922272;28;100152;-75
2022/12/14 12:43:16;;;;;;;13.68;10.30;;;;;;;;;;4924346;28;100206;-76
2022/12/14 12:45:44;;;;;;;13.52;9.40;;;;;;;;;;4922317;28;99737;-74
2022/12/14 12:48:26;;;;;;;12.77;8.82;;;;;;;;;;4918555;28;99512;-75
2022/12/14 12:50:54;;;;;;;14.55;9.40;;;;;;;;;;4928326;28;100530;-76
2022/12/14 12:53:27;;;;;;;13.52;10.10;;;;;;;;;;4922854;28;99981;-76
2022/12/14 12:55:55;;;;;;;13.30;9.88;;;;;;;;;;4920648;28;100200;-75
2022/12/14 12:58:27;;;;;;;15.32;9.30;;;;;;;;;;4921234;28;100156;-74
2022/12/14 13:00:56;;;;;;;13.77;8.73;;;;;;;;;;4915945;28;100236;-75
2022/12/14 13:03:28;;;;;;;14.65;9.23;;;;;;;;;;4919443;28;100277;-75
2022/12/14 13:05:56;;;;;;;11.15;9.25;;;;;;;;;;4921727;28;99684;-74
2022/12/14 13:08:25;;;;;;;13.98;9.45;;;;;;;;;;4923771;28;99982;-76
2022/12/14 13:10:53;;;;;;;17.83;9.98;;;;;;;;;;4922193;28;100574;-75
2022/12/14 13:13:42;;;;;;;15.90;9.95;;;;;;;;;;4922122;28;99993;-74
2022/12/14 13:16:14;;;;;;;25.33;10.55;;;;;;;;;;4913827;28;100449;-74
2022/12/14 13:18:48;;;;;;;15.33;9.83;;;;;;;;;;4917427;28;100210;-75
2022/12/14 13:21:41;;;;;;;11.98;8.38;;;;;;;;;;4919200;28;99978;-74
2022/12/14 13:24:12;;;;;;;17.77;9.40;;;;;;;;;;4917774;28;99593;-74
2022/12/14 13:26:38;;;;;;;10.50;7.53;;;;;;;;;;4924171;28;100038;-76
2022/12/14 13:29:28;;;;;;;14.35;8.90;;;;;;;;;;4923281;28;99029;-76
2022/12/14 13:32:02;;;;;;;12.38;8.27;;;;;;;;;;4921623;28;101263;-76
2022/12/14 13:34:37;;;;;;;9.45;7.85;;;;;;;;;;4921217;28;100029;-74
2022/12/14 13:37:12;;;;;;;15.32;8.27;;;;;;;;;;4927243;28;100209;-75
2022/12/14 13:39:45;;;;;;;13.27;7.60;;;;;;;;;;4920404;28;100355;-74
2022/12/14 13:42:28;;;;;;;16.73;9.43;;;;;;;;;;4917431;28;100020;-74
2022/12/14 13:44:55;;;;;;;13.77;8.55;;;;;;;;;;4920081;28;99259;-75
2022/12/14 13:47:52;;;;;;;14.40;8.82;;;;;;;;;;4922645;28;98893;-74
2022/12/14 13:50:31;;;;;;;12.30;8.55;;;;;;;;;;4912853;28;100008;-75
2022/12/14 13:53:03;;;;;;;;;;;;;;;;;;4916798;28;100793;-75
2022/12/14 13:55:31;;;;;;;17.42;9.40;;;;;;;;;;4915597;28;129502;-75
2022/12/14 13:58:24;;;;;;;16.13;9.00;;;;;;;;;;4924581;28;99521;-76
2022/12/14 14:00:55;;;;;;;11.70;8.27;;;;;;;;;;4926577;28;102249;-76
2022/12/14 14:03:33;;;;;;;13.65;9.70;;;;;;;;;;4925106;28;99732;-75
2022/12/14 14:06:00;;;;;;;13.80;9.73;;;;;;;;;;4926615;28;100622;-75
2022/12/14 14:08:29;;;;;;;13.50;9.30;;;;;;;;;;4927984;28;100879;-75
2022/12/14 14:11:22;;;;;;;15.85;9.82;;;;;;;;;;4928413;28;100342;-74
2022/12/14 14:14:10;;;;;;;14.63;9.50;;;;;;;;;;4927679;28;100544;-74
2022/12/14 14:16:40;;;;;;;15.75;9.68;;;;;;;;;;4928484;28;100249;-74
2022/12/14 14:19:07;;;;;;;15.30;10.48;;;;;;;;;;4928238;28;98605;-76
2022/12/14 14:21:39;;;;;;;15.25;9.77;;;;;;;;;;4927320;28;99286;-75
2022/12/14 14:24:26;;;;;;;12.17;8.50;;;;;;;;;;4930552;28;99291;-75
2022/12/14 14:26:58;;;;;;;18.73;10.65;;;;;;;;;;4927578;28;99212;-74
2022/12/14 14:29:27;;;;;;;14.75;11.07;;;;;;;;;;4926411;28;98616;-75
2022/12/14 14:31:58;;;;;;;18.38;12.30;;;;;;;;;;4928277;28;99695;-75
2022/12/14 14:34:24;;;;;;;16.40;10.20;;;;;;;;;;4927082;28;99599;-74
2022/12/14 14:36:51;;;;;;;13.65;11.57;;;;;;;;;;4927957;28;99822;-75
2022/12/14 14:39:36;;;;;;;16.08;9.98;;;;;;;;;;4927771;28;100631;-75
2022/12/14 14:42:24;;;;;;;19.55;11.07;;;;;;;;;;4928906;28;99437;-75
2022/12/14 14:44:56;;;;;;;16.58;10.50;;;;;;;;;;4931269;28;99004;-75